Time;durP1;ratioP1;P1;durP2;ratioP2;P2;SDS_P1;SDS_P2;PMS_P1;PMS_P2;Temp;Humidity;BMP_temperature;BMP_pressure;BME280_temperature;BME280_humidity;BME280_pressure;Samples;Min_cycle;Max_cycle;Signal;HPM_P1;HPM_P2
2022/01/10 00:01:05;;;;;;;17.35;4.40;;;2.10;99.90;;;;;;5098960;27;20031;-82
2022/01/10 00:03:31;;;;;;;22.60;4.30;;;2.10;99.90;;;;;;5128181;27;20062;-82
2022/01/10 00:05:56;;;;;;;23.25;4.72;;;2.10;99.90;;;;;;5115757;27;20070;-83
2022/01/10 00:08:22;;;;;;;19.25;4.78;;;2.10;99.90;;;;;;5109550;27;20408;-83
2022/01/10 00:10:48;;;;;;;22.52;4.30;;;2.10;99.90;;;;;;5113713;27;20504;-82
2022/01/10 00:13:13;;;;;;;22.80;4.95;;;2.00;99.90;;;;;;5132663;27;20035;-83
2022/01/10 00:15:39;;;;;;;24.23;5.30;;;2.00;99.90;;;;;;5116250;27;20035;-82
2022/01/10 00:18:05;;;;;;;14.93;4.53;;;2.00;99.90;;;;;;5122800;27;20512;-82
2022/01/10 00:20:30;;;;;;;24.50;5.82;;;2.00;99.90;;;;;;5131207;27;20487;-82
2022/01/10 00:22:56;;;;;;;17.23;4.75;;;2.00;99.90;;;;;;5106496;27;20112;-82
2022/01/10 00:25:23;;;;;;;26.38;5.32;;;1.90;99.90;;;;;;5119777;27;20031;-83
2022/01/10 00:27:52;;;;;;;17.50;4.70;;;1.90;99.90;;;;;;5122761;27;20058;-82
2022/01/10 00:30:18;;;;;;;19.20;4.97;;;1.90;99.90;;;;;;5108567;27;20030;-82
2022/01/10 00:32:44;;;;;;;15.25;5.03;;;1.90;99.90;;;;;;5106413;27;20436;-82
2022/01/10 00:35:11;;;;;;;25.75;6.03;;;1.80;99.90;;;;;;5104465;27;20740;-83
2022/01/10 00:37:39;;;;;;;16.83;5.22;;;1.80;99.90;;;;;;5121944;27;20030;-82
2022/01/10 00:40:06;;;;;;;26.80;5.30;;;1.80;99.90;;;;;;5121783;27;20126;-82
2022/01/10 00:42:32;;;;;;;14.90;4.72;;;1.80;99.90;;;;;;5119471;27;20139;-82
2022/01/10 00:45:01;;;;;;;20.42;5.65;;;1.70;99.90;;;;;;5106804;27;20027;-82
2022/01/10 00:47:27;;;;;;;22.88;6.28;;;1.70;99.90;;;;;;5101676;27;20104;-82
2022/01/10 00:49:53;;;;;;;29.63;6.50;;;1.70;99.90;;;;;;5124046;27;20034;-82
2022/01/10 00:52:18;;;;;;;19.65;5.53;;;1.70;99.90;;;;;;5101882;27;20035;-82
2022/01/10 00:54:44;;;;;;;22.40;5.68;;;1.70;99.90;;;;;;5119888;27;20065;-82
2022/01/10 00:57:10;;;;;;;29.65;6.10;;;1.70;99.90;;;;;;5131281;27;20400;-83
2022/01/10 00:59:35;;;;;;;22.73;5.85;;;1.60;99.90;;;;;;5113566;27;20031;-83
2022/01/10 01:02:01;;;;;;;29.40;7.07;;;1.60;99.90;;;;;;5126763;27;20514;-83
2022/01/10 01:04:27;;;;;;;23.95;6.50;;;1.60;99.90;;;;;;5108103;27;20411;-83
2022/01/10 01:06:53;;;;;;;25.08;8.25;;;1.50;99.90;;;;;;5132013;27;20034;-83
2022/01/10 01:09:24;;;;;;;30.08;8.20;;;1.50;99.90;;;;;;5111502;27;20030;-82
2022/01/10 01:17:13;;;;;;;;;;;1.80;99.90;;;;;;5125302;27;19915;-82
2022/01/10 01:25:11;;;;;;;16.23;5.10;;;1.20;99.90;;;;;;5129576;27;20026;-83
2022/01/10 01:27:37;;;;;;;18.42;5.30;;;1.10;99.90;;;;;;5104182;27;20555;-83
2022/01/10 01:30:05;;;;;;;16.77;4.80;;;1.00;99.90;;;;;;5096971;27;20042;-83
2022/01/10 01:32:31;;;;;;;16.58;5.22;;;1.00;99.90;;;;;;5107825;27;20062;-83
2022/01/10 01:35:02;;;;;;;18.38;5.25;;;1.00;99.90;;;;;;5111397;27;20068;-83
2022/01/10 01:37:29;;;;;;;19.73;5.15;;;1.00;99.90;;;;;;5128788;27;20500;-83
2022/01/10 01:39:54;;;;;;;21.15;5.70;;;1.00;99.90;;;;;;5101295;27;20437;-83
2022/01/10 01:42:42;;;;;;;18.27;5.90;;;1.00;99.90;;;;;;5109775;27;20038;-84
2022/01/10 01:45:11;;;;;;;20.53;6.10;;;1.10;99.90;;;;;;5123940;27;20054;-84
2022/01/10 01:47:37;;;;;;;15.52;5.22;;;1.10;99.90;;;;;;5125446;27;20039;-84
2022/01/10 01:50:06;;;;;;;20.67;5.67;;;1.00;99.90;;;;;;5113291;27;20043;-83
2022/01/10 01:52:31;;;;;;;21.90;6.00;;;1.00;99.90;;;;;;5099320;28;20036;-83
2022/01/10 01:54:57;;;;;;;20.00;6.07;;;1.00;99.90;;;;;;5086834;28;20047;-83
2022/01/10 01:57:23;;;;;;;18.87;5.67;;;1.00;99.90;;;;;;5095628;28;20031;-83
2022/01/10 01:59:49;;;;;;;17.30;5.13;;;1.00;99.90;;;;;;5115846;27;20030;-83
2022/01/10 02:02:15;;;;;;;22.35;5.18;;;0.90;99.90;;;;;;5112511;27;20038;-83
2022/01/10 02:04:41;;;;;;;19.13;5.15;;;0.90;99.90;;;;;;5121439;27;20038;-83
2022/01/10 02:07:06;;;;;;;24.27;4.87;;;0.90;99.90;;;;;;5111316;27;20449;-83
2022/01/10 02:09:32;;;;;;;17.08;4.72;;;0.80;99.90;;;;;;5101556;27;20032;-82
2022/01/10 02:11:58;;;;;;;17.30;5.07;;;0.80;99.90;;;;;;5121358;27;20038;-83
2022/01/10 02:14:24;;;;;;;18.20;4.67;;;0.70;99.90;;;;;;5106430;27;20035;-82
2022/01/10 02:16:56;;;;;;;17.98;5.15;;;0.70;99.90;;;;;;5102527;27;20027;-82
2022/01/10 02:19:25;;;;;;;15.93;5.20;;;0.70;99.90;;;;;;5114798;27;20096;-82
2022/01/10 02:21:51;;;;;;;13.10;5.07;;;0.70;99.90;;;;;;5103527;27;20035;-82
2022/01/10 02:24:17;;;;;;;13.60;5.10;;;0.60;99.90;;;;;;5126898;27;20103;-82
2022/01/10 02:26:50;;;;;;;14.40;4.63;;;0.60;99.90;;;;;;5114124;27;20035;-82
2022/01/10 02:29:16;;;;;;;13.10;4.90;;;0.50;99.90;;;;;;5118463;27;20063;-82
2022/01/10 02:31:43;;;;;;;15.15;4.50;;;0.50;99.90;;;;;;5109383;27;20039;-82
2022/01/10 02:34:09;;;;;;;22.97;4.47;;;0.50;99.90;;;;;;5102115;27;20027;-81
2022/01/10 02:36:35;;;;;;;19.60;4.97;;;0.40;99.90;;;;;;5133645;27;20030;-81
2022/01/10 02:39:07;;;;;;;15.17;5.07;;;0.40;99.90;;;;;;5119711;27;20672;-81
2022/01/10 02:41:35;;;;;;;18.50;5.13;;;0.40;99.90;;;;;;5122435;27;20087;-81
2022/01/10 02:44:04;;;;;;;24.13;5.43;;;0.50;99.90;;;;;;5123518;27;20087;-81
2022/01/10 02:46:34;;;;;;;15.33;5.07;;;0.40;99.90;;;;;;5127161;27;20088;-81
2022/01/10 02:49:00;;;;;;;17.37;5.20;;;0.30;99.90;;;;;;5119494;27;20069;-81
2022/01/10 02:51:26;;;;;;;18.93;4.93;;;0.20;99.90;;;;;;5119679;27;20062;-81
2022/01/10 02:53:51;;;;;;;13.07;4.63;;;0.20;99.90;;;;;;5123608;27;20031;-81
2022/01/10 02:56:17;;;;;;;14.90;4.77;;;0.30;99.90;;;;;;5125052;27;20039;-81
2022/01/10 02:58:43;;;;;;;12.63;4.90;;;0.20;99.90;;;;;;5126602;27;20122;-81
2022/01/10 03:01:08;;;;;;;14.33;4.30;;;0.20;99.90;;;;;;5131496;27;20034;-81
2022/01/10 03:03:34;;;;;;;13.17;5.07;;;0.20;99.90;;;;;;5126311;27;20051;-81
2022/01/10 03:06:01;;;;;;;12.83;4.70;;;0.20;99.90;;;;;;5104196;27;20037;-81
2022/01/10 03:08:28;;;;;;;19.03;5.57;;;0.20;99.90;;;;;;5118132;27;20392;-81
2022/01/10 03:10:54;;;;;;;18.70;5.90;;;0.20;99.90;;;;;;5134897;27;20030;-82
2022/01/10 03:13:19;;;;;;;13.77;5.13;;;0.30;99.90;;;;;;5110155;27;20034;-82
2022/01/10 03:15:45;;;;;;;19.03;5.80;;;0.30;99.90;;;;;;5106811;27;20503;-82
2022/01/10 03:18:10;;;;;;;21.57;6.17;;;0.30;99.90;;;;;;5133266;27;20026;-81
2022/01/10 03:20:36;;;;;;;19.73;6.03;;;0.30;99.90;;;;;;5113260;27;20397;-81
2022/01/10 03:23:02;;;;;;;18.43;6.37;;;0.30;99.90;;;;;;5122710;27;20032;-81
2022/01/10 03:25:28;;;;;;;16.43;6.20;;;0.30;99.90;;;;;;5114125;27;20110;-81
2022/01/10 03:27:53;;;;;;;13.93;6.23;;;0.30;99.90;;;;;;5119272;27;20035;-81
2022/01/10 03:30:19;;;;;;;22.47;6.97;;;0.30;99.90;;;;;;5133436;27;20051;-81
2022/01/10 03:32:47;;;;;;;21.33;6.80;;;0.40;99.90;;;;;;5125755;27;20126;-81
2022/01/10 03:35:13;;;;;;;15.37;6.73;;;0.40;99.90;;;;;;5126226;27;20095;-81
2022/01/10 03:37:39;;;;;;;27.53;7.90;;;0.40;99.90;;;;;;5122941;27;20162;-81
2022/01/10 03:40:06;;;;;;;31.10;7.83;;;0.40;99.90;;;;;;5131976;27;20059;-81
2022/01/10 03:42:32;;;;;;;22.13;7.57;;;0.40;99.90;;;;;;5124550;27;20102;-81
2022/01/10 03:44:58;;;;;;;20.30;7.90;;;0.40;99.90;;;;;;5103185;27;20512;-82
2022/01/10 03:47:23;;;;;;;27.30;8.27;;;0.40;99.90;;;;;;5125303;27;20561;-81
2022/01/10 03:49:49;;;;;;;21.37;8.10;;;0.40;99.90;;;;;;5107629;27;20042;-81
2022/01/10 03:52:15;;;;;;;23.87;8.40;;;0.40;99.90;;;;;;5100894;27;20083;-81
2022/01/10 03:54:41;;;;;;;26.30;8.57;;;0.40;99.90;;;;;;5128556;27;20572;-81
2022/01/10 03:57:06;;;;;;;19.87;8.57;;;0.40;99.90;;;;;;5115894;27;20039;-81
2022/01/10 03:59:32;;;;;;;27.43;9.03;;;0.40;99.90;;;;;;5108295;27;20052;-81
2022/01/10 04:01:58;;;;;;;25.83;10.03;;;0.40;99.90;;;;;;5121898;27;20045;-81
2022/01/10 04:04:24;;;;;;;33.10;10.57;;;0.40;99.90;;;;;;5121078;27;20035;-81
2022/01/10 04:06:50;;;;;;;27.70;10.90;;;0.30;99.90;;;;;;5104494;27;20035;-81
2022/01/10 04:09:19;;;;;;;22.63;10.70;;;0.30;99.90;;;;;;5101035;27;20122;-81
2022/01/10 04:11:45;;;;;;;25.43;9.53;;;0.30;99.90;;;;;;5123238;27;20119;-81
2022/01/10 04:14:10;;;;;;;27.07;10.27;;;0.30;99.90;;;;;;5122338;27;20027;-81
2022/01/10 04:16:36;;;;;;;23.87;10.30;;;0.30;99.90;;;;;;5127693;27;20043;-81
2022/01/10 04:19:02;;;;;;;22.20;10.40;;;0.30;99.90;;;;;;5119913;27;20446;-81
2022/01/10 04:21:28;;;;;;;27.97;10.80;;;0.30;99.90;;;;;;5114447;27;20125;-81
2022/01/10 04:23:54;;;;;;;24.00;10.53;;;0.30;99.90;;;;;;5127922;27;20075;-81
2022/01/10 04:26:19;;;;;;;20.27;9.13;;;0.30;99.90;;;;;;5119824;27;20039;-81
2022/01/10 04:28:45;;;;;;;27.60;10.23;;;0.20;99.90;;;;;;5121010;27;20035;-81
2022/01/10 04:31:11;;;;;;;24.57;9.90;;;0.20;99.90;;;;;;5131758;27;20122;-81
2022/01/10 04:33:37;;;;;;;24.53;10.53;;;0.20;99.90;;;;;;5127818;27;20412;-80
2022/01/10 04:36:03;;;;;;;27.93;11.10;;;0.20;99.90;;;;;;5119076;27;20042;-81
2022/01/10 04:38:29;;;;;;;27.87;11.10;;;0.10;99.90;;;;;;5107932;27;20058;-81
2022/01/10 04:40:55;;;;;;;28.40;11.67;;;0.10;99.90;;;;;;5132636;27;20174;-81
2022/01/10 04:43:21;;;;;;;27.23;11.80;;;0.10;99.90;;;;;;5117832;27;20046;-81
2022/01/10 04:45:46;;;;;;;27.83;11.53;;;0.10;99.90;;;;;;5128293;27;20031;-81
2022/01/10 04:48:15;;;;;;;25.63;12.37;;;0.20;99.90;;;;;;5116196;27;20051;-81
2022/01/10 04:53:24;;;;;;;26.25;11.75;;;0.20;99.90;;;;;;5129449;27;20092;-81
2022/01/10 04:55:50;;;;;;;29.70;12.57;;;0.10;99.90;;;;;;5115001;27;20035;-82
2022/01/10 04:58:15;;;;;;;30.77;12.30;;;0.20;99.90;;;;;;5119035;27;20062;-81
2022/01/10 05:00:41;;;;;;;26.27;12.47;;;0.10;99.90;;;;;;5120018;27;20043;-81
2022/01/10 05:03:07;;;;;;;28.00;12.33;;;0.10;99.90;;;;;;5116686;27;20414;-81
2022/01/10 05:05:32;;;;;;;30.17;13.50;;;0.10;99.90;;;;;;5133544;27;20030;-81
2022/01/10 05:07:58;;;;;;;30.00;12.43;;;0.10;99.90;;;;;;5098528;27;20027;-81
2022/01/10 05:10:23;;;;;;;27.67;12.40;;;0.10;99.90;;;;;;5097818;27;20492;-82
2022/01/10 05:12:49;;;;;;;27.80;12.80;;;0.00;99.90;;;;;;5115165;27;20505;-81
2022/01/10 05:15:14;;;;;;;29.30;13.47;;;0.00;99.90;;;;;;5114399;27;20526;-81
2022/01/10 05:17:40;;;;;;;27.93;12.60;;;0.00;99.90;;;;;;5102012;27;20413;-81
2022/01/10 05:20:06;;;;;;;30.57;12.67;;;0.00;99.90;;;;;;5103329;27;20059;-82
2022/01/10 05:22:32;;;;;;;32.13;13.40;;;0.00;99.90;;;;;;5115748;27;20127;-82
2022/01/10 05:24:58;;;;;;;30.13;13.20;;;0.00;99.90;;;;;;5097039;27;20518;-81
2022/01/10 05:27:23;;;;;;;40.27;14.07;;;-0.10;99.90;;;;;;5114850;27;20401;-82
2022/01/10 05:29:49;;;;;;;35.23;13.70;;;0.00;99.90;;;;;;5119541;27;20487;-82
2022/01/10 05:32:14;;;;;;;31.13;14.03;;;0.00;99.90;;;;;;5112718;27;20030;-82
2022/01/10 05:34:40;;;;;;;26.53;13.97;;;0.00;99.90;;;;;;5128999;27;20556;-82
2022/01/10 05:37:05;;;;;;;27.00;14.20;;;0.00;99.90;;;;;;5098250;27;20038;-81
2022/01/10 05:39:31;;;;;;;33.87;15.80;;;0.00;99.90;;;;;;5126564;27;20026;-82
2022/01/10 05:41:56;;;;;;;34.23;14.87;;;0.00;99.90;;;;;;5131668;27;20039;-81
2022/01/10 05:44:22;;;;;;;28.90;15.07;;;0.00;99.90;;;;;;5131756;27;20551;-81
2022/01/10 05:46:48;;;;;;;29.83;14.03;;;0.00;99.90;;;;;;5118122;27;20077;-82
2022/01/10 05:49:15;;;;;;;29.27;13.73;;;-0.10;99.90;;;;;;5116620;27;20043;-82
2022/01/10 05:51:41;;;;;;;25.63;13.50;;;-0.10;99.90;;;;;;5102078;27;20038;-81
2022/01/10 05:54:07;;;;;;;34.83;14.33;;;-0.10;99.90;;;;;;5119623;27;20466;-82
2022/01/10 05:56:34;;;;;;;26.87;13.43;;;-0.20;99.90;;;;;;5109822;27;20027;-81
2022/01/10 05:59:00;;;;;;;31.70;13.07;;;-0.20;99.90;;;;;;5106157;27;20038;-82
2022/01/10 06:01:26;;;;;;;28.27;13.77;;;-0.20;99.90;;;;;;5125163;27;20084;-82
2022/01/10 06:03:52;;;;;;;30.03;14.20;;;-0.20;99.90;;;;;;5109473;27;20491;-81
2022/01/10 06:06:17;;;;;;;28.77;13.27;;;-0.30;99.90;;;;;;5113850;28;20039;-82
2022/01/10 06:08:44;;;;;;;30.13;13.53;;;-0.30;99.90;;;;;;5104378;28;20039;-82
2022/01/10 06:11:10;;;;;;;21.87;12.07;;;-0.40;99.90;;;;;;5097254;28;20046;-82
2022/01/10 06:13:35;;;;;;;25.63;13.20;;;-0.40;99.90;;;;;;5113769;28;20031;-82
2022/01/10 06:16:01;;;;;;;29.77;14.37;;;-0.40;99.90;;;;;;5113415;28;20035;-82
2022/01/10 06:18:26;;;;;;;31.63;13.60;;;-0.50;99.90;;;;;;5113488;27;20035;-82
2022/01/10 06:20:52;;;;;;;26.63;13.50;;;-0.50;99.90;;;;;;5107173;27;20110;-81
2022/01/10 06:23:17;;;;;;;28.17;13.93;;;-0.50;99.90;;;;;;5113888;28;20403;-82
2022/01/10 06:25:43;;;;;;;25.90;13.67;;;-0.50;99.90;;;;;;5113671;28;20031;-81
2022/01/10 06:28:09;;;;;;;26.90;13.27;;;-0.50;99.90;;;;;;5117345;27;20047;-81
2022/01/10 06:30:35;;;;;;;30.73;13.57;;;-0.60;99.90;;;;;;5117123;27;20042;-82
2022/01/10 06:33:01;;;;;;;36.23;13.57;;;-0.50;99.90;;;;;;5121082;28;20046;-82
2022/01/10 06:35:27;;;;;;;35.33;14.07;;;-0.60;99.90;;;;;;5113088;28;20039;-82
2022/01/10 06:37:53;;;;;;;38.17;14.67;;;-0.60;99.90;;;;;;5099397;27;20048;-82
2022/01/10 06:40:19;;;;;;;29.77;13.30;;;-0.60;99.90;;;;;;5134197;27;20034;-82
2022/01/10 06:42:45;;;;;;;26.50;13.87;;;-0.60;99.90;;;;;;5130528;27;20118;-82
2022/01/10 06:45:11;;;;;;;27.87;14.40;;;-0.60;99.90;;;;;;5132145;27;20121;-82
2022/01/10 06:47:38;;;;;;;24.77;12.90;;;-0.60;99.90;;;;;;5131708;27;20095;-82
2022/01/10 06:50:05;;;;;;;28.70;13.60;;;-0.60;99.90;;;;;;5114683;27;20087;-82
2022/01/10 06:52:31;;;;;;;57.83;13.57;;;-0.70;99.90;;;;;;5105826;27;20038;-82
2022/01/10 06:54:57;;;;;;;32.00;13.63;;;-0.70;99.90;;;;;;5110437;27;20031;-82
2022/01/10 06:57:22;;;;;;;40.10;13.47;;;-0.70;99.90;;;;;;5117458;28;20041;-82
2022/01/10 06:59:48;;;;;;;24.60;12.83;;;-0.80;99.90;;;;;;5116491;27;20436;-81
2022/01/10 07:02:13;;;;;;;28.93;13.23;;;-0.80;99.90;;;;;;5104040;27;20039;-81
2022/01/10 07:04:39;;;;;;;23.23;12.80;;;-0.80;99.90;;;;;;5123646;27;20444;-81
2022/01/10 07:07:05;;;;;;;29.27;13.03;;;-0.80;99.90;;;;;;5125998;28;20031;-81
2022/01/10 07:09:31;;;;;;;25.77;12.97;;;-0.80;99.90;;;;;;5082384;27;20043;-81
2022/01/10 07:11:57;;;;;;;27.70;13.00;;;-0.90;99.90;;;;;;5104458;27;20031;-81
2022/01/10 07:14:23;;;;;;;25.53;14.07;;;-0.90;99.90;;;;;;5109303;27;20545;-82
2022/01/10 07:16:50;;;;;;;28.57;14.23;;;-0.90;99.90;;;;;;5128955;27;20392;-81
2022/01/10 07:19:16;;;;;;;28.70;15.40;;;-0.90;99.90;;;;;;5122867;27;20046;-83
2022/01/10 07:21:43;;;;;;;30.23;16.00;;;-0.90;99.90;;;;;;5106333;27;20039;-81
2022/01/10 07:24:08;;;;;;;31.77;15.83;;;-0.90;99.90;;;;;;5133105;27;20049;-81
2022/01/10 07:26:34;;;;;;;29.73;16.53;;;-0.90;99.90;;;;;;5129105;27;20405;-81
2022/01/10 07:29:01;;;;;;;30.77;16.30;;;-0.80;99.90;;;;;;5100105;27;20115;-81
2022/01/10 07:31:27;;;;;;;29.90;15.80;;;-0.90;99.90;;;;;;5117209;27;20073;-81
2022/01/10 07:33:52;;;;;;;32.97;16.43;;;-0.90;99.90;;;;;;5118027;27;20031;-81
2022/01/10 07:36:18;;;;;;;38.67;17.00;;;-0.90;99.90;;;;;;5116811;27;20408;-82
2022/01/10 07:38:44;;;;;;;30.07;16.50;;;-0.90;99.90;;;;;;5099884;27;20516;-81
2022/01/10 07:41:09;;;;;;;36.57;17.57;;;-0.90;99.90;;;;;;5116569;27;20040;-81
2022/01/10 07:43:35;;;;;;;32.80;16.23;;;-0.90;99.90;;;;;;5116459;27;20035;-82
2022/01/10 07:46:02;;;;;;;35.23;16.17;;;-0.90;99.90;;;;;;5116113;27;20478;-81
2022/01/10 07:48:29;;;;;;;34.33;17.90;;;-0.90;99.90;;;;;;5116293;27;20097;-82
2022/01/10 07:50:55;;;;;;;35.30;16.90;;;-0.90;99.90;;;;;;5107110;27;20122;-80
2022/01/10 07:53:21;;;;;;;36.00;17.40;;;-0.90;99.90;;;;;;5116261;27;20073;-82
2022/01/10 07:55:46;;;;;;;36.67;16.30;;;-0.90;99.90;;;;;;5098695;27;20125;-82
2022/01/10 07:58:12;;;;;;;41.40;19.33;;;-0.90;99.90;;;;;;5100484;27;20039;-82
2022/01/10 08:00:38;;;;;;;41.03;19.23;;;-0.90;99.90;;;;;;5116501;27;20400;-82
2022/01/10 08:03:04;;;;;;;40.23;17.73;;;-0.90;99.90;;;;;;5095130;27;20039;-82
2022/01/10 08:05:29;;;;;;;37.07;18.10;;;-1.00;99.90;;;;;;5084185;28;20039;-82
2022/01/10 08:07:55;;;;;;;37.23;18.43;;;-1.00;99.90;;;;;;5106740;27;20039;-82
2022/01/10 08:10:20;;;;;;;32.70;16.97;;;-1.00;99.90;;;;;;5098514;27;20039;-82
2022/01/10 08:12:46;;;;;;;46.00;16.50;;;-0.90;99.90;;;;;;5091110;27;20073;-82
2022/01/10 08:15:12;;;;;;;29.00;15.77;;;-0.90;99.90;;;;;;5095272;28;20089;-82
2022/01/10 08:17:39;;;;;;;32.17;16.07;;;-1.00;99.90;;;;;;5097659;27;20477;-82
2022/01/10 08:20:05;;;;;;;33.97;16.90;;;-0.90;99.90;;;;;;5098516;27;20119;-82
2022/01/10 08:22:31;;;;;;;31.20;17.03;;;-1.00;99.90;;;;;;5098554;27;20560;-82
2022/01/10 08:24:56;;;;;;;34.83;16.73;;;-0.90;99.90;;;;;;5094159;28;20115;-82
2022/01/10 08:27:22;;;;;;;37.70;17.13;;;-0.90;99.90;;;;;;5100340;27;20100;-82
2022/01/10 08:29:48;;;;;;;35.00;16.80;;;-0.90;99.90;;;;;;5135892;27;20034;-82
2022/01/10 08:32:14;;;;;;;34.47;19.93;;;-0.90;99.90;;;;;;5101654;27;20126;-82
2022/01/10 08:34:40;;;;;;;30.97;17.23;;;-0.90;99.90;;;;;;5112708;27;20118;-82
2022/01/10 08:37:06;;;;;;;32.07;17.23;;;-0.90;99.90;;;;;;5080945;27;20126;-82
2022/01/10 08:39:32;;;;;;;27.47;16.73;;;-0.90;99.90;;;;;;5099564;27;20107;-82
2022/01/10 08:41:58;;;;;;;29.37;17.70;;;-0.90;99.90;;;;;;5106048;27;20039;-82
2022/01/10 08:44:23;;;;;;;31.47;17.40;;;-0.90;99.90;;;;;;5106596;27;20092;-82
2022/01/10 08:46:49;;;;;;;33.67;18.37;;;-0.80;99.90;;;;;;5131608;27;20035;-81
2022/01/10 08:49:15;;;;;;;35.73;17.50;;;-0.70;99.90;;;;;;5104604;27;20136;-83
2022/01/10 08:51:41;;;;;;;30.40;16.70;;;-0.70;99.90;;;;;;5116413;27;20121;-83
2022/01/10 08:54:07;;;;;;;32.77;16.73;;;-0.70;99.90;;;;;;5114494;27;20085;-81
2022/01/10 08:56:34;;;;;;;32.33;17.57;;;-0.60;99.90;;;;;;5120476;27;20031;-83
2022/01/10 08:59:00;;;;;;;33.13;17.13;;;-0.60;99.90;;;;;;5127000;27;20072;-82
2022/01/10 09:01:26;;;;;;;34.47;17.73;;;-0.50;99.90;;;;;;5100131;27;20061;-82
2022/01/10 09:03:53;;;;;;;37.43;17.90;;;-0.50;99.90;;;;;;5114716;27;20522;-83
2022/01/10 09:06:18;;;;;;;33.60;18.37;;;-0.40;99.90;;;;;;5129278;27;20035;-83
2022/01/10 09:08:47;;;;;;;33.03;17.23;;;-0.40;99.90;;;;;;5107389;27;20042;-83
2022/01/10 09:11:13;;;;;;;35.30;17.63;;;-0.40;99.90;;;;;;5098536;28;20123;-83
2022/01/10 09:13:39;;;;;;;29.70;17.03;;;-0.40;99.90;;;;;;5086301;28;20062;-83
2022/01/10 09:16:07;;;;;;;35.17;18.07;;;-0.30;99.90;;;;;;5111858;27;20032;-83
2022/01/10 09:18:33;;;;;;;34.53;20.07;;;-0.30;99.90;;;;;;5105554;28;20063;-83
2022/01/10 09:20:59;;;;;;;35.30;19.97;;;-0.20;99.90;;;;;;5092807;28;20032;-83
2022/01/10 09:23:25;;;;;;;37.70;19.53;;;-0.10;99.90;;;;;;5094227;27;20115;-83
2022/01/10 09:25:51;;;;;;;40.40;20.20;;;-0.10;99.90;;;;;;5110686;27;20059;-83
2022/01/10 09:28:18;;;;;;;38.67;19.90;;;0.00;99.90;;;;;;5095771;27;20067;-83
2022/01/10 09:30:45;;;;;;;41.50;20.43;;;0.00;99.90;;;;;;5094248;27;20070;-83
2022/01/10 09:33:10;;;;;;;35.43;22.10;;;0.00;99.90;;;;;;5096827;27;20039;-83
2022/01/10 09:35:37;;;;;;;40.77;22.60;;;0.10;99.90;;;;;;5109491;28;20500;-83
2022/01/10 09:38:03;;;;;;;40.37;21.80;;;0.20;99.90;;;;;;5093987;28;20439;-83
2022/01/10 09:40:29;;;;;;;43.83;23.37;;;0.20;99.90;;;;;;5077174;28;20039;-84
2022/01/10 09:42:54;;;;;;;44.37;22.33;;;0.20;99.90;;;;;;5092722;28;20047;-84
2022/01/10 09:45:20;;;;;;;37.13;21.33;;;0.30;99.90;;;;;;5109997;28;20040;-84
2022/01/10 09:47:46;;;;;;;37.33;21.50;;;0.30;99.90;;;;;;5109531;28;20028;-85
2022/01/10 09:50:15;;;;;;;41.13;22.70;;;0.30;99.90;;;;;;5076785;28;20043;-85
2022/01/10 09:52:43;;;;;;;38.63;22.60;;;0.30;99.90;;;;;;5093744;28;20035;-85
2022/01/10 09:55:08;;;;;;;44.37;24.97;;;0.40;99.90;;;;;;5078249;28;20552;-85
2022/01/10 09:57:34;;;;;;;45.63;25.40;;;0.50;99.90;;;;;;5094464;28;20164;-85
2022/01/10 09:59:59;;;;;;;51.10;26.43;;;0.60;99.90;;;;;;5096711;28;20075;-86
2022/01/10 10:02:34;;;;;;;45.33;25.57;;;0.70;99.90;;;;;;5113825;28;20035;-85
2022/01/10 10:05:07;;;;;;;49.37;26.43;;;0.80;99.90;;;;;;5113885;28;20043;-85
2022/01/10 10:07:35;;;;;;;;;;;0.90;99.90;;;;;;5114505;28;20043;-85
2022/01/10 10:10:07;;;;;;;43.07;23.90;;;1.00;99.90;;;;;;5113798;28;19983;-86
2022/01/10 10:12:33;;;;;;;41.80;24.30;;;1.10;99.90;;;;;;5114198;28;20039;-85
2022/01/10 10:15:07;;;;;;;51.93;26.50;;;1.10;99.90;;;;;;5093210;28;20114;-83
2022/01/10 10:17:34;;;;;;;48.33;28.45;;;1.20;99.90;;;;;;5091616;28;20043;-81
2022/01/10 10:20:11;;;;;;;54.67;28.17;;;1.30;99.90;;;;;;5093755;28;20032;-80
2022/01/10 10:22:41;;;;;;;48.10;26.47;;;1.30;99.90;;;;;;5096838;28;20047;-80
2022/01/10 10:25:12;;;;;;;51.03;28.63;;;1.30;99.90;;;;;;5076103;28;20044;-80
2022/01/10 10:27:41;;;;;;;48.40;26.47;;;1.40;99.90;;;;;;5086157;28;20127;-79
2022/01/10 10:30:13;;;;;;;46.93;26.90;;;1.50;99.90;;;;;;5110731;28;20450;-79
2022/01/10 10:32:39;;;;;;;46.90;27.07;;;1.50;99.90;;;;;;5110732;28;20032;-80
2022/01/10 10:35:06;;;;;;;53.63;27.67;;;1.60;99.90;;;;;;5110687;28;20024;-79
2022/01/10 10:37:40;;;;;;;53.27;28.23;;;1.60;99.90;;;;;;5113105;28;20096;-80
2022/01/10 10:40:09;;;;;;;50.80;26.17;;;1.70;99.90;;;;;;5110416;28;20032;-79
2022/01/10 10:42:38;;;;;;;58.03;29.00;;;1.70;99.90;;;;;;5109774;28;20050;-80
2022/01/10 10:45:09;;;;;;;52.53;28.63;;;1.80;99.90;;;;;;5086199;28;20036;-80
2022/01/10 10:47:36;;;;;;;55.77;28.23;;;1.90;99.90;;;;;;5097441;28;20146;-80
2022/01/10 10:50:05;;;;;;;57.20;29.30;;;1.90;99.90;;;;;;5106611;28;20032;-80
2022/01/10 10:52:36;;;;;;;51.87;29.33;;;2.00;99.90;;;;;;5097334;27;20028;-81
2022/01/10 10:55:11;;;;;;;52.20;28.70;;;2.10;99.90;;;;;;5098132;27;20053;-80
2022/01/10 10:57:37;;;;;;;54.47;28.10;;;2.20;99.90;;;;;;5094800;27;20390;-80
2022/01/10 11:00:12;;;;;;;57.20;29.47;;;2.20;99.90;;;;;;5099663;27;20122;-80
2022/01/10 11:02:38;;;;;;;50.97;30.07;;;2.30;99.90;;;;;;5114446;27;20114;-80
2022/01/10 11:05:06;;;;;;;50.80;29.70;;;2.40;99.90;;;;;;5106457;27;20169;-80
2022/01/10 11:07:34;;;;;;;53.90;30.07;;;2.50;99.90;;;;;;5103531;27;20071;-81
2022/01/10 11:10:04;;;;;;;51.47;29.13;;;2.60;99.90;;;;;;5104520;27;20046;-80
2022/01/10 11:12:31;;;;;;;57.37;30.17;;;2.70;99.90;;;;;;5088206;27;20035;-80
2022/01/10 11:14:59;;;;;;;55.00;30.37;;;2.80;99.90;;;;;;5096155;27;20480;-81
2022/01/10 11:17:25;;;;;;;59.47;30.70;;;2.90;99.90;;;;;;5109764;27;20084;-81
2022/01/10 11:20:16;;;;;;;54.25;30.60;;;3.00;99.90;;;;;;5109755;27;20038;-81
2022/01/10 11:22:48;;;;;;;45.33;27.90;;;3.00;99.90;;;;;;5109958;27;20115;-80
2022/01/10 11:25:32;;;;;;;49.50;27.37;;;3.10;99.90;;;;;;5102433;27;20521;-80
2022/01/10 11:28:10;;;;;;;45.22;27.00;;;3.20;99.90;;;;;;5082417;27;20028;-79
2022/01/10 11:30:39;;;;;;;47.85;27.75;;;3.20;99.90;;;;;;5114432;27;20039;-80
2022/01/10 11:33:15;;;;;;;46.45;28.67;;;3.30;99.90;;;;;;5103741;27;20065;-80
2022/01/10 11:36:03;;;;;;;44.83;27.77;;;3.30;99.90;;;;;;5093759;28;20492;-79
2022/01/10 11:38:49;;;;;;;49.38;28.73;;;3.40;99.90;;;;;;5086532;28;20492;-80
2022/01/10 11:41:18;;;;;;;47.58;27.65;;;3.50;99.90;;;;;;5102875;27;20042;-79
2022/01/10 11:43:54;;;;;;;44.03;26.55;;;3.50;99.90;;;;;;5099885;27;20080;-80
2022/01/10 11:46:41;;;;;;;41.88;27.75;;;3.60;99.90;;;;;;5106330;27;20111;-80
2022/01/10 11:49:11;;;;;;;43.33;25.35;;;3.60;99.90;;;;;;5087949;27;20046;-80
2022/01/10 11:51:49;;;;;;;45.10;27.30;;;3.70;99.90;;;;;;5112874;27;20089;-80
2022/01/10 11:54:26;;;;;;;43.65;25.98;;;3.80;99.90;;;;;;5114084;27;20042;-80
2022/01/10 11:56:54;;;;;;;42.45;26.48;;;3.80;99.90;;;;;;5110764;27;20035;-80
2022/01/10 11:59:29;;;;;;;43.58;27.17;;;4.00;99.90;;;;;;5107239;27;20050;-80
2022/01/10 12:02:02;;;;;;;46.03;26.60;;;4.00;99.90;;;;;;5105188;27;20079;-80
2022/01/10 12:04:40;;;;;;;38.95;25.20;;;4.10;99.90;;;;;;5110542;27;20054;-81
2022/01/10 12:07:08;;;;;;;42.97;25.20;;;4.20;99.90;;;;;;5099742;27;20507;-80
2022/01/10 12:09:35;;;;;;;48.67;25.60;;;4.20;99.90;;;;;;5100733;27;20032;-80
2022/01/10 12:12:02;;;;;;;41.08;26.10;;;4.30;99.90;;;;;;5109573;27;20031;-80
2022/01/10 12:14:29;;;;;;;44.55;25.83;;;4.40;99.90;;;;;;5092160;27;20467;-81
2022/01/10 12:16:57;;;;;;;41.90;25.52;;;4.50;99.90;;;;;;5105719;27;20047;-80
2022/01/10 12:19:22;;;;;;;39.55;24.17;;;4.50;99.90;;;;;;5108482;27;20049;-81
2022/01/10 12:21:48;;;;;;;41.00;25.48;;;4.60;99.90;;;;;;5113210;27;20492;-81
2022/01/10 12:24:14;;;;;;;37.78;24.77;;;4.70;99.90;;;;;;5115339;27;20130;-80
2022/01/10 12:26:41;;;;;;;39.85;24.42;;;4.70;99.90;;;;;;5113189;27;20067;-80
2022/01/10 12:29:08;;;;;;;38.45;24.52;;;4.80;99.90;;;;;;5116275;27;20035;-81
2022/01/10 12:31:36;;;;;;;42.03;25.63;;;5.00;99.90;;;;;;5109226;27;20043;-81
2022/01/10 12:34:03;;;;;;;39.08;24.77;;;5.00;99.90;;;;;;5113960;27;20153;-81
2022/01/10 12:36:31;;;;;;;37.50;25.00;;;5.10;99.90;;;;;;5114340;27;20042;-81
2022/01/10 12:39:05;;;;;;;36.28;23.45;;;5.20;99.90;;;;;;5113249;27;20442;-81
2022/01/10 12:41:32;;;;;;;39.70;24.80;;;5.30;99.90;;;;;;5106360;27;20035;-81
2022/01/10 12:43:59;;;;;;;45.90;23.73;;;5.40;99.90;;;;;;5098285;27;20488;-82
2022/01/10 12:46:27;;;;;;;43.35;23.23;;;5.50;99.90;;;;;;5114642;27;20032;-81
2022/01/10 12:48:53;;;;;;;36.70;23.77;;;5.60;99.90;;;;;;5111403;28;20050;-81
2022/01/10 12:51:20;;;;;;;40.65;24.38;;;5.80;99.90;;;;;;5114390;27;20068;-82